sensor_id;sensor_type;location;lat;lon;timestamp;pressure;altitude;pressure_sealevel;temperature;humidity
72116;BME280;59991;52.140;5.428;2024-01-25T00:00:11;102724.56;;;7.39;98.87
72116;BME280;59991;52.140;5.428;2024-01-25T00:00:43;102726.19;;;7.40;98.90
72116;BME280;59991;52.140;5.428;2024-01-25T00:01:15;102729.19;;;7.38;98.95
72116;BME280;59991;52.140;5.428;2024-01-25T00:02:04;102727.28;;;7.39;98.87
72116;BME280;59991;52.140;5.428;2024-01-25T00:02:35;102726.00;;;7.36;99.08
72116;BME280;59991;52.140;5.428;2024-01-25T00:03:07;102727.09;;;7.35;99.07
72116;BME280;59991;52.140;5.428;2024-01-25T00:03:38;102724.38;;;7.35;98.93
72116;BME280;59991;52.140;5.428;2024-01-25T00:04:10;102727.72;;;7.32;98.87
72116;BME280;59991;52.140;5.428;2024-01-25T00:05:32;102727.72;;;7.32;99.03
72116;BME280;59991;52.140;5.428;2024-01-25T00:06:07;102733.13;;;7.32;99.43
72116;BME280;59991;52.140;5.428;2024-01-25T00:06:41;102724.19;;;7.32;99.60
72116;BME280;59991;52.140;5.428;2024-01-25T00:07:31;102718.78;;;7.32;99.27
72116;BME280;59991;52.140;5.428;2024-01-25T00:08:03;102728.34;;;7.29;99.60
72116;BME280;59991;52.140;5.428;2024-01-25T00:08:35;102722.44;;;7.27;99.58
72116;BME280;59991;52.140;5.428;2024-01-25T00:09:07;102731.38;;;7.27;99.51
72116;BME280;59991;52.140;5.428;2024-01-25T00:09:39;102731.38;;;7.27;99.05
72116;BME280;59991;52.140;5.428;2024-01-25T00:10:11;102729.75;;;7.26;99.76
72116;BME280;59991;52.140;5.428;2024-01-25T00:10:42;102728.97;;;7.26;99.08
72116;BME280;59991;52.140;5.428;2024-01-25T00:11:14;102736.81;;;7.27;99.00
72116;BME280;59991;52.140;5.428;2024-01-25T00:11:46;102736.00;;;7.27;99.32
72116;BME280;59991;52.140;5.428;2024-01-25T00:12:17;102735.50;;;7.25;99.28
72116;BME280;59991;52.140;5.428;2024-01-25T00:12:49;102733.91;;;7.24;99.07
72116;BME280;59991;52.140;5.428;2024-01-25T00:13:21;102735.50;;;7.25;99.41
72116;BME280;59991;52.140;5.428;2024-01-25T00:13:52;102727.66;;;7.23;99.32
72116;BME280;59991;52.140;5.428;2024-01-25T00:14:24;102739.63;;;7.22;99.37
72116;BME280;59991;52.140;5.428;2024-01-25T00:14:55;102737.72;;;7.23;99.56
72116;BME280;59991;52.140;5.428;2024-01-25T00:15:27;102743.16;;;7.23;99.80
72116;BME280;59991;52.140;5.428;2024-01-25T00:15:58;102744.56;;;7.20;99.93
72116;BME280;59991;52.140;5.428;2024-01-25T00:16:30;102737.53;;;7.19;99.93
72116;BME280;59991;52.140;5.428;2024-01-25T00:17:02;102737.53;;;7.19;99.76
72116;BME280;59991;52.140;5.428;2024-01-25T00:17:34;102738.63;;;7.18;100.00
72116;BME280;59991;52.140;5.428;2024-01-25T00:18:23;102737.53;;;7.19;100.00
72116;BME280;59991;52.140;5.428;2024-01-25T00:18:54;102742.94;;;7.19;99.89
72116;BME280;59991;52.140;5.428;2024-01-25T00:19:26;102740.25;;;7.19;99.78
72116;BME280;59991;52.140;5.428;2024-01-25T00:19:57;102745.66;;;7.19;100.00
72116;BME280;59991;52.140;5.428;2024-01-25T00:20:29;102736.72;;;7.19;99.87
72116;BME280;59991;52.140;5.428;2024-01-25T00:21:01;102742.16;;;7.19;100.00
72116;BME280;59991;52.140;5.428;2024-01-25T00:21:32;102732.41;;;7.18;100.00
72116;BME280;59991;52.140;5.428;2024-01-25T00:23:13;102734.31;;;7.17;100.00
72116;BME280;59991;52.140;5.428;2024-01-25T00:23:44;102736.22;;;7.17;100.00
72116;BME280;59991;52.140;5.428;2024-01-25T00:24:16;102730.31;;;7.15;100.00
72116;BME280;59991;52.140;5.428;2024-01-25T00:24:47;102729.50;;;7.14;100.00
72116;BME280;59991;52.140;5.428;2024-01-25T00:25:19;102734.13;;;7.14;100.00
72116;BME280;59991;52.140;5.428;2024-01-25T00:25:50;102743.38;;;7.13;100.00
72116;BME280;59991;52.140;5.428;2024-01-25T00:26:22;102740.66;;;7.13;100.00
72116;BME280;59991;52.140;5.428;2024-01-25T00:26:53;102736.38;;;7.12;100.00
72116;BME280;59991;52.140;5.428;2024-01-25T00:27:25;102737.94;;;7.13;100.00
72116;BME280;59991;52.140;5.428;2024-01-25T00:27:57;102735.56;;;7.11;100.00
72116;BME280;59991;52.140;5.428;2024-01-25T00:28:28;102739.38;;;7.10;100.00
72116;BME280;59991;52.140;5.428;2024-01-25T00:29:00;102739.38;;;7.10;100.00
72116;BME280;59991;52.140;5.428;2024-01-25T00:29:33;102736.66;;;7.10;100.00
72116;BME280;59991;52.140;5.428;2024-01-25T00:30:06;102730.44;;;7.10;100.00
72116;BME280;59991;52.140;5.428;2024-01-25T00:30:37;102736.97;;;7.09;100.00
72116;BME280;59991;52.140;5.428;2024-01-25T00:31:09;102735.38;;;7.08;100.00
72116;BME280;59991;52.140;5.428;2024-01-25T00:31:40;102734.25;;;7.09;100.00
72116;BME280;59991;52.140;5.428;2024-01-25T00:32:12;102736.47;;;7.07;100.00
72116;BME280;59991;52.140;5.428;2024-01-25T00:32:43;102737.28;;;7.07;100.00
72116;BME280;59991;52.140;5.428;2024-01-25T00:33:15;102737.59;;;7.06;100.00
72116;BME280;59991;52.140;5.428;2024-01-25T00:33:47;102738.69;;;7.05;100.00
72116;BME280;59991;52.140;5.428;2024-01-25T00:34:19;102738.19;;;7.03;100.00
72116;BME280;59991;52.140;5.428;2024-01-25T00:34:51;102736.59;;;7.02;100.00
72116;BME280;59991;52.140;5.428;2024-01-25T00:35:24;102736.59;;;7.02;100.00
72116;BME280;59991;52.140;5.428;2024-01-25T00:35:56;102738.50;;;7.01;100.00
72116;BME280;59991;52.140;5.428;2024-01-25T00:36:28;102738.81;;;7.00;100.00
72116;BME280;59991;52.140;5.428;2024-01-25T00:37:00;102741.50;;;7.00;100.00
72116;BME280;59991;52.140;5.428;2024-01-25T00:37:32;102733.69;;;6.98;100.00
72116;BME280;59991;52.140;5.428;2024-01-25T00:38:03;102735.59;;;6.98;100.00
72116;BME280;59991;52.140;5.428;2024-01-25T00:38:35;102741.81;;;6.98;100.00
72116;BME280;59991;52.140;5.428;2024-01-25T00:39:07;102739.09;;;6.98;100.00
72116;BME280;59991;52.140;5.428;2024-01-25T00:39:39;102740.22;;;6.97;100.00
72116;BME280;59991;52.140;5.428;2024-01-25T00:40:11;102746.44;;;6.98;100.00
72116;BME280;59991;52.140;5.428;2024-01-25T00:40:45;102737.81;;;6.96;100.00
72116;BME280;59991;52.140;5.428;2024-01-25T00:41:17;102742.13;;;6.97;100.00
72116;BME280;59991;52.140;5.428;2024-01-25T00:41:51;102743.22;;;6.96;100.00
72116;BME280;59991;52.140;5.428;2024-01-25T00:42:23;102742.44;;;6.95;100.00
72116;BME280;59991;52.140;5.428;2024-01-25T00:42:55;102734.28;;;6.95;100.00
72116;BME280;59991;52.140;5.428;2024-01-25T00:43:27;102738.91;;;6.94;100.00
72116;BME280;59991;52.140;5.428;2024-01-25T00:44:17;102745.13;;;6.95;100.00
72116;BME280;59991;52.140;5.428;2024-01-25T00:44:49;102735.72;;;6.92;100.00
72116;BME280;59991;52.140;5.428;2024-01-25T00:45:21;102741.94;;;6.93;100.00
72116;BME280;59991;52.140;5.428;2024-01-25T00:46:14;102741.44;;;6.91;100.00
72116;BME280;59991;52.140;5.428;2024-01-25T00:46:46;102741.44;;;6.91;100.00
72116;BME280;59991;52.140;5.428;2024-01-25T00:47:18;102746.88;;;6.91;100.00
72116;BME280;59991;52.140;5.428;2024-01-25T00:47:50;102747.19;;;6.89;100.00
72116;BME280;59991;52.140;5.428;2024-01-25T00:48:22;102741.75;;;6.89;100.00
72116;BME280;59991;52.140;5.428;2024-01-25T00:48:54;102744.47;;;6.89;100.00
72116;BME280;59991;52.140;5.428;2024-01-25T00:49:26;102741.25;;;6.87;100.00
72116;BME280;59991;52.140;5.428;2024-01-25T00:49:58;102745.56;;;6.88;100.00
72116;BME280;59991;52.140;5.428;2024-01-25T00:50:30;102751.81;;;6.89;100.00
72116;BME280;59991;52.140;5.428;2024-01-25T00:51:06;102744.78;;;6.88;100.00
72116;BME280;59991;52.140;5.428;2024-01-25T00:51:41;102751.31;;;6.87;100.00
72116;BME280;59991;52.140;5.428;2024-01-25T00:52:16;102743.47;;;6.85;100.00
72116;BME280;59991;52.140;5.428;2024-01-25T00:52:48;102748.88;;;6.85;100.00
72116;BME280;59991;52.140;5.428;2024-01-25T00:53:20;102751.59;;;6.85;100.00
72116;BME280;59991;52.140;5.428;2024-01-25T00:53:52;102749.19;;;6.84;100.00
72116;BME280;59991;52.140;5.428;2024-01-25T00:54:24;102752.72;;;6.84;100.00
72116;BME280;59991;52.140;5.428;2024-01-25T00:54:56;102753.50;;;6.85;100.00
72116;BME280;59991;52.140;5.428;2024-01-25T00:55:28;102753.50;;;6.85;100.00
72116;BME280;59991;52.140;5.428;2024-01-25T00:56:00;102751.91;;;6.84;100.00
72116;BME280;59991;52.140;5.428;2024-01-25T00:56:31;102757.31;;;6.84;100.00
72116;BME280;59991;52.140;5.428;2024-01-25T00:57:03;102747.09;;;6.81;100.00
72116;BME280;59991;52.140;5.428;2024-01-25T00:57:35;102757.63;;;6.82;100.00
72116;BME280;59991;52.140;5.428;2024-01-25T00:58:24;102754.13;;;6.82;100.00
72116;BME280;59991;52.140;5.428;2024-01-25T00:58:56;102753.31;;;6.81;100.00
72116;BME280;59991;52.140;5.428;2024-01-25T00:59:28;102752.50;;;6.81;100.00
72116;BME280;59991;52.140;5.428;2024-01-25T01:00:00;102757.94;;;6.81;100.00
72116;BME280;59991;52.140;5.428;2024-01-25T01:00:32;102764.16;;;6.81;100.00
72116;BME280;59991;52.140;5.428;2024-01-25T01:01:04;102757.13;;;6.80;100.00
72116;BME280;59991;52.140;5.428;2024-01-25T01:01:35;102764.47;;;6.80;100.00
72116;BME280;59991;52.140;5.428;2024-01-25T01:02:11;102766.38;;;6.79;100.00
72116;BME280;59991;52.140;5.428;2024-01-25T01:02:44;102764.47;;;6.80;100.00
72116;BME280;59991;52.140;5.428;2024-01-25T01:03:18;102763.66;;;6.79;100.00
72116;BME280;59991;52.140;5.428;2024-01-25T01:03:50;102766.69;;;6.78;100.00
72116;BME280;59991;52.140;5.428;2024-01-25T01:04:25;102768.59;;;6.77;100.00
72116;BME280;59991;52.140;5.428;2024-01-25T01:04:57;102765.38;;;6.75;100.00
72116;BME280;59991;52.140;5.428;2024-01-25T01:05:30;102765.38;;;6.75;100.00
72116;BME280;59991;52.140;5.428;2024-01-25T01:06:03;102764.56;;;6.75;100.00
72116;BME280;59991;52.140;5.428;2024-01-25T01:06:35;102765.19;;;6.72;100.00
72116;BME280;59991;52.140;5.428;2024-01-25T01:07:07;102767.59;;;6.73;100.00
72116;BME280;59991;52.140;5.428;2024-01-25T01:07:39;102764.09;;;6.73;100.00
72116;BME280;59991;52.140;5.428;2024-01-25T01:08:12;102767.59;;;6.73;100.00
72116;BME280;59991;52.140;5.428;2024-01-25T01:08:44;102767.59;;;6.73;100.00
72116;BME280;59991;52.140;5.428;2024-01-25T01:09:16;102762.19;;;6.73;100.00
72116;BME280;59991;52.140;5.428;2024-01-25T01:09:49;102762.97;;;6.74;100.00
72116;BME280;59991;52.140;5.428;2024-01-25T01:10:20;102762.97;;;6.74;100.00
72116;BME280;59991;52.140;5.428;2024-01-25T01:10:52;102769.19;;;6.74;100.00
72116;BME280;59991;52.140;5.428;2024-01-25T01:11:24;102757.06;;;6.72;100.00
72116;BME280;59991;52.140;5.428;2024-01-25T01:11:55;102762.47;;;6.72;100.00
72116;BME280;59991;52.140;5.428;2024-01-25T01:12:27;102756.25;;;6.71;100.00
72116;BME280;59991;52.140;5.428;2024-01-25T01:12:59;102761.38;;;6.73;100.00
72116;BME280;59991;52.140;5.428;2024-01-25T01:13:30;102764.09;;;6.73;100.00
72116;BME280;59991;52.140;5.428;2024-01-25T01:14:02;102764.41;;;6.71;100.00
72116;BME280;59991;52.140;5.428;2024-01-25T01:14:33;102761.69;;;6.71;100.00
72116;BME280;59991;52.140;5.428;2024-01-25T01:15:05;102764.41;;;6.71;100.00
72116;BME280;59991;52.140;5.428;2024-01-25T01:15:36;102772.84;;;6.70;100.00
72116;BME280;59991;52.140;5.428;2024-01-25T01:16:08;102780.97;;;6.70;100.00
72116;BME280;59991;52.140;5.428;2024-01-25T01:16:40;102772.84;;;6.70;100.00
72116;BME280;59991;52.140;5.428;2024-01-25T01:17:32;102772.84;;;6.70;100.00
72116;BME280;59991;52.140;5.428;2024-01-25T01:18:03;102774.22;;;6.67;100.00
72116;BME280;59991;52.140;5.428;2024-01-25T01:18:36;102778.06;;;6.66;100.00
72116;BME280;59991;52.140;5.428;2024-01-25T01:19:10;102771.81;;;6.66;100.00
72116;BME280;59991;52.140;5.428;2024-01-25T01:19:41;102773.44;;;6.67;100.00
72116;BME280;59991;52.140;5.428;2024-01-25T01:20:14;102770.22;;;6.65;100.00
72116;BME280;59991;52.140;5.428;2024-01-25T01:20:47;102771.31;;;6.64;100.00
72116;BME280;59991;52.140;5.428;2024-01-25T01:21:18;102781.38;;;6.63;100.00
72116;BME280;59991;52.140;5.428;2024-01-25T01:21:50;102772.44;;;6.63;100.00
72116;BME280;59991;52.140;5.428;2024-01-25T01:22:22;102777.84;;;6.63;100.00
72116;BME280;59991;52.140;5.428;2024-01-25T01:22:53;102775.13;;;6.63;100.00
72116;BME280;59991;52.140;5.428;2024-01-25T01:23:25;102781.38;;;6.63;100.00
72116;BME280;59991;52.140;5.428;2024-01-25T01:23:57;102779.75;;;6.62;100.00
72116;BME280;59991;52.140;5.428;2024-01-25T01:24:28;102777.84;;;6.63;100.00
72116;BME280;59991;52.140;5.428;2024-01-25T01:25:00;102775.94;;;6.63;100.00
72116;BME280;59991;52.140;5.428;2024-01-25T01:25:31;102787.09;;;6.62;100.00
72116;BME280;59991;52.140;5.428;2024-01-25T01:26:07;102782.47;;;6.62;100.00
72116;BME280;59991;52.140;5.428;2024-01-25T01:26:38;102781.66;;;6.62;100.00
72116;BME280;59991;52.140;5.428;2024-01-25T01:27:28;102785.19;;;6.62;100.00
72116;BME280;59991;52.140;5.428;2024-01-25T01:28:19;102781.66;;;6.62;100.00
72116;BME280;59991;52.140;5.428;2024-01-25T01:28:50;102778.44;;;6.59;100.00
72116;BME280;59991;52.140;5.428;2024-01-25T01:29:22;102783.38;;;6.57;100.00
72116;BME280;59991;52.140;5.428;2024-01-25T01:29:54;102782.84;;;6.55;100.00
72116;BME280;59991;52.140;5.428;2024-01-25T01:30:25;102785.91;;;6.54;100.00
72116;BME280;59991;52.140;5.428;2024-01-25T01:30:57;102782.06;;;6.55;100.00
72116;BME280;59991;52.140;5.428;2024-01-25T01:31:28;102778.53;;;6.54;100.00
72116;BME280;59991;52.140;5.428;2024-01-25T01:32:00;102775.34;;;6.52;100.00
72116;BME280;59991;52.140;5.428;2024-01-25T01:32:32;102783.50;;;6.52;100.00
72116;BME280;59991;52.140;5.428;2024-01-25T01:33:03;102783.50;;;6.52;100.00
72116;BME280;59991;52.140;5.428;2024-01-25T01:33:35;102781.06;;;6.51;100.00
72116;BME280;59991;52.140;5.428;2024-01-25T01:34:07;102785.69;;;6.50;100.00
72116;BME280;59991;52.140;5.428;2024-01-25T01:34:39;102783.28;;;6.49;100.00
72116;BME280;59991;52.140;5.428;2024-01-25T01:35:11;102786.50;;;6.51;100.00
72116;BME280;59991;52.140;5.428;2024-01-25T01:35:42;102784.91;;;6.50;100.00
72116;BME280;59991;52.140;5.428;2024-01-25T01:36:15;102789.50;;;6.49;100.00
72116;BME280;59991;52.140;5.428;2024-01-25T01:36:46;102790.31;;;6.50;100.00
72116;BME280;59991;52.140;5.428;2024-01-25T01:37:18;102787.59;;;6.50;100.00
72116;BME280;59991;52.140;5.428;2024-01-25T01:37:49;102787.09;;;6.48;100.00
72116;BME280;59991;52.140;5.428;2024-01-25T01:38:21;102786.81;;;6.49;100.00
72116;BME280;59991;52.140;5.428;2024-01-25T01:38:52;102791.41;;;6.49;100.00
72116;BME280;59991;52.140;5.428;2024-01-25T01:39:24;102789.50;;;6.49;100.00
72116;BME280;59991;52.140;5.428;2024-01-25T01:39:56;102788.19;;;6.47;100.00
72116;BME280;59991;52.140;5.428;2024-01-25T01:40:47;102789.50;;;6.49;100.00
72116;BME280;59991;52.140;5.428;2024-01-25T01:41:37;102780.88;;;6.47;100.00
72116;BME280;59991;52.140;5.428;2024-01-25T01:42:09;102784.97;;;6.45;100.00
72116;BME280;59991;52.140;5.428;2024-01-25T01:42:40;102780.66;;;6.44;100.00
72116;BME280;59991;52.140;5.428;2024-01-25T01:43:18;102781.47;;;6.44;100.00
72116;BME280;59991;52.140;5.428;2024-01-25T01:43:52;102776.34;;;6.43;100.00
72116;BME280;59991;52.140;5.428;2024-01-25T01:44:24;102786.69;;;6.41;100.00
72116;BME280;59991;52.140;5.428;2024-01-25T01:44:56;102785.88;;;6.40;100.00
72116;BME280;59991;52.140;5.428;2024-01-25T01:45:28;102783.97;;;6.41;100.00
72116;BME280;59991;52.140;5.428;2024-01-25T01:46:04;102783.19;;;6.40;100.00
72116;BME280;59991;52.140;5.428;2024-01-25T01:46:38;102785.06;;;6.40;100.00
72116;BME280;59991;52.140;5.428;2024-01-25T01:47:11;102781.88;;;6.38;100.00
72116;BME280;59991;52.140;5.428;2024-01-25T01:47:44;102781.06;;;6.37;100.00
72116;BME280;59991;52.140;5.428;2024-01-25T01:48:18;102785.69;;;6.37;100.00
72116;BME280;59991;52.140;5.428;2024-01-25T01:48:50;102785.97;;;6.35;100.00
72116;BME280;59991;52.140;5.428;2024-01-25T01:49:22;102790.63;;;6.35;100.00
72116;BME280;59991;52.140;5.428;2024-01-25T01:49:54;102787.09;;;6.34;100.00
72116;BME280;59991;52.140;5.428;2024-01-25T01:51:17;102793.63;;;6.33;100.00
72116;BME280;59991;52.140;5.428;2024-01-25T01:51:49;102789.31;;;6.32;100.00
72116;BME280;59991;52.140;5.428;2024-01-25T01:52:21;102795.03;;;6.31;100.00
72116;BME280;59991;52.140;5.428;2024-01-25T01:52:53;102793.94;;;6.32;100.00
72116;BME280;59991;52.140;5.428;2024-01-25T01:53:25;102792.63;;;6.29;100.00
72116;BME280;59991;52.140;5.428;2024-01-25T01:53:57;102792.31;;;6.31;100.00
72116;BME280;59991;52.140;5.428;2024-01-25T01:54:30;102791.81;;;6.29;100.00
72116;BME280;59991;52.140;5.428;2024-01-25T01:55:02;102789.09;;;6.29;100.00
72116;BME280;59991;52.140;5.428;2024-01-25T01:55:34;102782.88;;;6.28;100.00
72116;BME280;59991;52.140;5.428;2024-01-25T01:56:06;102782.88;;;6.28;100.00
72116;BME280;59991;52.140;5.428;2024-01-25T01:56:37;102788.31;;;6.28;100.00
72116;BME280;59991;52.140;5.428;2024-01-25T01:57:11;102786.69;;;6.27;100.00
72116;BME280;59991;52.140;5.428;2024-01-25T01:57:44;102783.97;;;6.27;100.00
72116;BME280;59991;52.140;5.428;2024-01-25T01:58:17;102790.81;;;6.24;100.00
72116;BME280;59991;52.140;5.428;2024-01-25T01:58:51;102783.47;;;6.25;100.00
72116;BME280;59991;52.140;5.428;2024-01-25T01:59:22;102787.28;;;6.24;100.00
72116;BME280;59991;52.140;5.428;2024-01-25T01:59:58;102789.19;;;6.23;100.00
72116;BME280;59991;52.140;5.428;2024-01-25T02:00:33;102788.38;;;6.23;100.00
72116;BME280;59991;52.140;5.428;2024-01-25T02:01:05;102792.19;;;6.22;100.00
72116;BME280;59991;52.140;5.428;2024-01-25T02:01:37;102795.72;;;6.22;100.00
72116;BME280;59991;52.140;5.428;2024-01-25T02:02:09;102785.97;;;6.21;100.00
72116;BME280;59991;52.140;5.428;2024-01-25T02:02:41;102793.28;;;6.21;100.00
72116;BME280;59991;52.140;5.428;2024-01-25T02:03:13;102801.13;;;6.22;100.00
72116;BME280;59991;52.140;5.428;2024-01-25T02:04:02;102798.41;;;6.22;100.00
72116;BME280;59991;52.140;5.428;2024-01-25T02:04:34;102799.53;;;6.21;100.00
72116;BME280;59991;52.140;5.428;2024-01-25T02:05:06;102802.53;;;6.20;100.00
72116;BME280;59991;52.140;5.428;2024-01-25T02:05:37;102799.81;;;6.20;100.00
72116;BME280;59991;52.140;5.428;2024-01-25T02:06:09;102807.16;;;6.19;100.00
72116;BME280;59991;52.140;5.428;2024-01-25T02:06:42;102806.34;;;6.19;100.00
72116;BME280;59991;52.140;5.428;2024-01-25T02:07:14;102792.00;;;6.18;100.00
72116;BME280;59991;52.140;5.428;2024-01-25T02:07:46;102793.59;;;6.19;100.00
72116;BME280;59991;52.140;5.428;2024-01-25T02:08:17;102806.34;;;6.19;100.00
72116;BME280;59991;52.140;5.428;2024-01-25T02:08:49;102799.00;;;6.19;100.00
72116;BME280;59991;52.140;5.428;2024-01-25T02:09:24;102802.03;;;6.18;100.00
72116;BME280;59991;52.140;5.428;2024-01-25T02:09:55;102799.31;;;6.18;100.00
72116;BME280;59991;52.140;5.428;2024-01-25T02:10:27;102799.31;;;6.18;100.00
72116;BME280;59991;52.140;5.428;2024-01-25T02:11:59;102801.72;;;6.19;100.00
72116;BME280;59991;52.140;5.428;2024-01-25T02:12:30;102801.22;;;6.17;100.00
72116;BME280;59991;52.140;5.428;2024-01-25T02:13:02;102804.72;;;6.18;100.00
72116;BME280;59991;52.140;5.428;2024-01-25T02:13:34;102805.03;;;6.16;100.00
72116;BME280;59991;52.140;5.428;2024-01-25T02:14:05;102810.44;;;6.16;100.00
72116;BME280;59991;52.140;5.428;2024-01-25T02:14:41;102819.38;;;6.17;100.00
72116;BME280;59991;52.140;5.428;2024-01-25T02:16:04;102814.28;;;6.15;100.00
72116;BME280;59991;52.140;5.428;2024-01-25T02:16:36;102815.38;;;6.14;100.00
72116;BME280;59991;52.140;5.428;2024-01-25T02:17:08;102821.09;;;6.13;100.00
72116;BME280;59991;52.140;5.428;2024-01-25T02:17:40;102825.72;;;6.12;100.00
72116;BME280;59991;52.140;5.428;2024-01-25T02:18:12;102824.41;;;6.10;100.00
72116;BME280;59991;52.140;5.428;2024-01-25T02:18:44;102829.81;;;6.10;100.00
72116;BME280;59991;52.140;5.428;2024-01-25T02:19:15;102823.59;;;6.09;100.00
72116;BME280;59991;52.140;5.428;2024-01-25T02:19:47;102823.88;;;6.08;100.00
72116;BME280;59991;52.140;5.428;2024-01-25T02:20:19;102825.78;;;6.07;100.00
72116;BME280;59991;52.140;5.428;2024-01-25T02:20:51;102821.47;;;6.06;100.00
72116;BME280;59991;52.140;5.428;2024-01-25T02:21:22;102830.69;;;6.05;100.00
72116;BME280;59991;52.140;5.428;2024-01-25T02:21:55;102834.50;;;6.04;100.00
72116;BME280;59991;52.140;5.428;2024-01-25T02:22:29;102834.50;;;6.04;100.00
72116;BME280;59991;52.140;5.428;2024-01-25T02:23:00;102838.31;;;6.03;100.00
72116;BME280;59991;52.140;5.428;2024-01-25T02:23:32;102833.19;;;6.02;100.00
72116;BME280;59991;52.140;5.428;2024-01-25T02:24:04;102839.41;;;6.02;100.00
72116;BME280;59991;52.140;5.428;2024-01-25T02:24:36;102836.72;;;6.02;100.00
72116;BME280;59991;52.140;5.428;2024-01-25T02:25:08;102837.00;;;6.01;100.00
72116;BME280;59991;52.140;5.428;2024-01-25T02:25:39;102832.38;;;6.01;100.00
72116;BME280;59991;52.140;5.428;2024-01-25T02:26:30;102835.09;;;6.01;100.00
72116;BME280;59991;52.140;5.428;2024-01-25T02:27:02;102837.00;;;6.01;100.00
72116;BME280;59991;52.140;5.428;2024-01-25T02:27:36;102833.78;;;5.99;100.00
72116;BME280;59991;52.140;5.428;2024-01-25T02:28:10;102834.88;;;5.98;100.00
72116;BME280;59991;52.140;5.428;2024-01-25T02:28:42;102830.28;;;5.98;100.00
72116;BME280;59991;52.140;5.428;2024-01-25T02:29:13;102841.09;;;5.98;100.00
72116;BME280;59991;52.140;5.428;2024-01-25T02:29:45;102837.59;;;5.98;100.00
72116;BME280;59991;52.140;5.428;2024-01-25T02:30:17;102835.97;;;5.97;100.00
72116;BME280;59991;52.140;5.428;2024-01-25T02:30:48;102840.63;;;5.96;100.00
72116;BME280;59991;52.140;5.428;2024-01-25T02:31:21;102844.44;;;5.95;100.00
72116;BME280;59991;52.140;5.428;2024-01-25T02:31:53;102844.44;;;5.95;100.00
72116;BME280;59991;52.140;5.428;2024-01-25T02:32:25;102840.13;;;5.94;100.00
72116;BME280;59991;52.140;5.428;2024-01-25T02:33:15;102840.91;;;5.95;100.00
72116;BME280;59991;52.140;5.428;2024-01-25T02:33:47;102839.31;;;5.94;100.00
72116;BME280;59991;52.140;5.428;2024-01-25T02:34:19;102842.81;;;5.94;100.00
72116;BME280;59991;52.140;5.428;2024-01-25T02:34:51;102845.03;;;5.92;100.00
72116;BME280;59991;52.140;5.428;2024-01-25T02:36:12;102847.22;;;5.90;100.00
72116;BME280;59991;52.140;5.428;2024-01-25T02:36:43;102837.47;;;5.89;100.00
72116;BME280;59991;52.140;5.428;2024-01-25T02:37:15;102835.84;;;5.88;100.00
72116;BME280;59991;52.140;5.428;2024-01-25T02:37:47;102841.25;;;5.88;100.00
72116;BME280;59991;52.140;5.428;2024-01-25T02:38:18;102839.66;;;5.87;100.00
72116;BME280;59991;52.140;5.428;2024-01-25T02:38:50;102838.56;;;5.88;100.00
72116;BME280;59991;52.140;5.428;2024-01-25T02:39:22;102843.16;;;5.87;100.00
72116;BME280;59991;52.140;5.428;2024-01-25T02:39:53;102847.78;;;5.87;100.00
72116;BME280;59991;52.140;5.428;2024-01-25T02:40:25;102845.06;;;5.87;100.00
72116;BME280;59991;52.140;5.428;2024-01-25T02:40:56;102848.56;;;5.87;100.00
72116;BME280;59991;52.140;5.428;2024-01-25T02:41:32;102853.19;;;5.87;100.00
72116;BME280;59991;52.140;5.428;2024-01-25T02:42:04;102851.56;;;5.86;100.00
72116;BME280;59991;52.140;5.428;2024-01-25T02:42:35;102843.75;;;5.84;100.00
72116;BME280;59991;52.140;5.428;2024-01-25T02:43:07;102849.16;;;5.84;100.00
72116;BME280;59991;52.140;5.428;2024-01-25T02:43:39;102839.44;;;5.83;100.00
72116;BME280;59991;52.140;5.428;2024-01-25T02:44:11;102842.44;;;5.82;100.00
72116;BME280;59991;52.140;5.428;2024-01-25T02:44:43;102843.53;;;5.81;100.00
72116;BME280;59991;52.140;5.428;2024-01-25T02:45:15;102838.91;;;5.81;100.00
72116;BME280;59991;52.140;5.428;2024-01-25T02:45:46;102848.94;;;5.81;100.00
72116;BME280;59991;52.140;5.428;2024-01-25T02:46:19;102853.56;;;5.80;100.00
72116;BME280;59991;52.140;5.428;2024-01-25T02:46:51;102848.13;;;5.80;100.00
72116;BME280;59991;52.140;5.428;2024-01-25T02:47:22;102850.03;;;5.80;100.00
72116;BME280;59991;52.140;5.428;2024-01-25T02:47:54;102850.03;;;5.80;100.00
72116;BME280;59991;52.140;5.428;2024-01-25T02:48:27;102852.75;;;5.80;100.00
72116;BME280;59991;52.140;5.428;2024-01-25T02:48:59;102848.44;;;5.79;100.00
72116;BME280;59991;52.140;5.428;2024-01-25T02:49:31;102851.13;;;5.79;100.00
72116;BME280;59991;52.140;5.428;2024-01-25T02:50:03;102853.84;;;5.79;100.00
72116;BME280;59991;52.140;5.428;2024-01-25T02:50:34;102854.13;;;5.77;100.00
72116;BME280;59991;52.140;5.428;2024-01-25T02:51:06;102854.13;;;5.77;100.00
72116;BME280;59991;52.140;5.428;2024-01-25T02:51:37;102849.06;;;5.76;100.00
72116;BME280;59991;52.140;5.428;2024-01-25T02:52:09;102856.06;;;5.77;100.00
72116;BME280;59991;52.140;5.428;2024-01-25T02:52:41;102851.75;;;5.76;100.00
72116;BME280;59991;52.140;5.428;2024-01-25T02:53:12;102845.81;;;5.74;100.00
72116;BME280;59991;52.140;5.428;2024-01-25T02:53:44;102854.25;;;5.72;100.00
72116;BME280;59991;52.140;5.428;2024-01-25T02:54:15;102856.94;;;5.72;100.00
72116;BME280;59991;52.140;5.428;2024-01-25T02:54:47;102854.53;;;5.71;100.00
72116;BME280;59991;52.140;5.428;2024-01-25T02:55:19;102851.81;;;5.71;100.00
72116;BME280;59991;52.140;5.428;2024-01-25T02:55:51;102855.34;;;5.71;100.00
72116;BME280;59991;52.140;5.428;2024-01-25T02:56:23;102849.13;;;5.71;100.00
72116;BME280;59991;52.140;5.428;2024-01-25T02:57:13;102862.66;;;5.71;100.00
72116;BME280;59991;52.140;5.428;2024-01-25T02:57:45;102847.22;;;5.71;100.00